createdAt,value
2018-05-23T00:00:14.805Z,13.15
2018-05-23T00:01:18.919Z,13.73
2018-05-23T00:02:23.024Z,13.23
2018-05-23T00:03:27.111Z,12.48
2018-05-23T00:04:31.926Z,12.55
2018-05-23T00:05:36.188Z,13.30
2018-05-23T00:06:41.040Z,12.63
2018-05-23T00:07:46.047Z,13.88
2018-05-23T00:08:50.287Z,12.57
2018-05-23T00:09:54.535Z,13.13
2018-05-23T00:10:58.650Z,12.13
2018-05-23T00:12:02.761Z,13.00
2018-05-23T00:13:07.289Z,12.55
2018-05-23T00:14:12.279Z,12.23
2018-05-23T00:15:16.541Z,13.48
2018-05-23T00:16:20.791Z,11.63
2018-05-23T00:17:25.039Z,11.55
2018-05-23T00:18:29.328Z,11.70
2018-05-23T00:19:34.419Z,11.68
2018-05-23T00:20:38.724Z,12.70
2018-05-23T00:21:42.975Z,11.73
2018-05-23T00:22:47.987Z,11.63
2018-05-23T00:23:52.087Z,10.93
2018-05-23T00:24:56.171Z,10.65
2018-05-23T00:26:00.237Z,11.45
2018-05-23T00:27:04.587Z,11.48
2018-05-23T00:28:08.679Z,10.30
2018-05-23T00:29:12.904Z,12.37
2018-05-23T00:30:17.162Z,10.65
2018-05-23T00:31:21.385Z,12.13
2018-05-23T00:32:26.198Z,11.30
2018-05-23T00:33:30.311Z,10.80
2018-05-23T00:34:34.443Z,10.60
2018-05-23T00:35:38.501Z,12.05
2018-05-23T00:36:42.579Z,11.43
2018-05-23T00:37:47.336Z,10.52
2018-05-23T00:38:51.875Z,10.88
2018-05-23T00:39:56.303Z,11.10
2018-05-23T00:41:00.547Z,10.40
2018-05-23T00:42:04.814Z,9.95
2018-05-23T00:43:09.841Z,10.45
2018-05-23T00:44:14.841Z,9.85
2018-05-23T00:45:19.140Z,10.63
2018-05-23T00:46:23.355Z,9.70
2018-05-23T00:47:28.437Z,11.75
2018-05-23T00:48:32.727Z,9.57
2018-05-23T00:49:37.358Z,10.63
2018-05-23T00:50:41.765Z,9.68
2018-05-23T00:51:46.049Z,10.20
2018-05-23T00:52:50.335Z,11.23
2018-05-23T00:53:55.370Z,9.52
2018-05-23T00:55:09.621Z,9.32
2018-05-23T00:56:13.871Z,9.52
2018-05-23T00:57:18.177Z,8.48
2018-05-23T00:58:22.759Z,8.93
2018-05-23T00:59:27.008Z,9.25
2018-05-23T01:00:31.373Z,9.30
2018-05-23T01:01:36.228Z,8.95
2018-05-23T01:02:40.499Z,10.48
2018-05-23T01:03:44.860Z,9.60
2018-05-23T01:04:49.151Z,9.40
2018-05-23T01:05:53.566Z,7.62
2018-05-23T01:06:58.281Z,9.20
2018-05-23T01:08:02.538Z,8.95
2018-05-23T01:09:06.910Z,8.32
2018-05-23T01:10:11.200Z,8.63
2018-05-23T01:11:15.575Z,8.93
2018-05-23T01:12:19.643Z,8.10
2018-05-23T01:13:24.964Z,8.40
2018-05-23T01:14:29.148Z,8.75
2018-05-23T01:15:33.452Z,9.18
2018-05-23T01:16:37.522Z,8.65
2018-05-23T01:17:41.590Z,7.87
2018-05-23T01:18:46.412Z,8.45
2018-05-23T01:19:51.622Z,8.45
2018-05-23T01:20:56.020Z,8.25
2018-05-23T01:22:00.075Z,8.57
2018-05-23T01:23:04.197Z,9.52
2018-05-23T01:24:08.320Z,8.98
2018-05-23T01:25:12.771Z,7.95
2018-05-23T01:26:17.572Z,7.87
2018-05-23T01:27:21.642Z,8.50
2018-05-23T01:28:25.755Z,8.57
2018-05-23T01:29:29.892Z,8.20
2018-05-23T01:30:34.771Z,8.48
2018-05-23T01:31:39.183Z,10.07
2018-05-23T01:32:43.350Z,8.00
2018-05-23T01:33:47.471Z,9.20
2018-05-23T01:34:51.529Z,8.57
2018-05-23T01:35:56.351Z,7.43
2018-05-23T01:37:01.305Z,7.60
2018-05-23T01:38:05.671Z,8.20
2018-05-23T01:39:09.897Z,7.70
2018-05-23T01:40:13.976Z,8.15
2018-05-23T01:41:18.059Z,8.30
2018-05-23T01:42:22.176Z,7.35
2018-05-23T01:43:26.259Z,7.10
2018-05-23T01:44:30.391Z,7.55
2018-05-23T01:45:35.310Z,7.78
2018-05-23T01:46:39.459Z,7.22
2018-05-23T01:47:43.508Z,8.70
2018-05-23T01:48:56.408Z,7.97
2018-05-23T01:50:00.878Z,6.72
2018-05-23T01:51:05.201Z,8.57
2018-05-23T01:52:09.655Z,7.75
2018-05-23T01:53:14.644Z,7.20
2018-05-23T01:54:19.185Z,7.40
2018-05-23T01:55:24.717Z,7.03
2018-05-23T01:56:28.959Z,8.50
2018-05-23T01:57:33.295Z,7.35
2018-05-23T01:58:37.798Z,6.15
2018-05-23T01:59:42.010Z,6.97
2018-05-23T02:00:46.528Z,8.60
2018-05-23T02:01:50.596Z,7.40
2018-05-23T02:02:54.660Z,7.45
2018-05-23T02:03:58.737Z,7.55
2018-05-23T02:05:02.783Z,7.18
2018-05-23T02:06:07.620Z,6.78
2018-05-23T02:07:11.746Z,7.50
2018-05-23T02:08:15.794Z,7.35
2018-05-23T02:09:19.831Z,7.20
2018-05-23T02:10:23.999Z,6.97
2018-05-23T02:11:28.993Z,7.18
2018-05-23T02:12:33.096Z,7.93
2018-05-23T02:13:37.175Z,7.95
2018-05-23T02:14:41.203Z,6.70
2018-05-23T02:15:45.300Z,6.43
2018-05-23T02:16:49.462Z,6.85
2018-05-23T02:17:53.515Z,7.25
2018-05-23T02:18:57.589Z,6.43
2018-05-23T02:20:01.655Z,6.47
2018-05-23T02:21:06.659Z,7.20
2018-05-23T02:22:11.191Z,6.10
2018-05-23T02:23:16.167Z,7.07
2018-05-23T02:24:20.704Z,7.78
2018-05-23T02:25:24.886Z,7.55
2018-05-23T02:26:29.118Z,6.55
2018-05-23T02:27:33.438Z,6.75
2018-05-23T02:28:38.435Z,6.53
2018-05-23T02:29:42.499Z,6.90
2018-05-23T02:30:46.926Z,6.68
2018-05-23T02:31:51.400Z,6.35
2018-05-23T02:32:55.455Z,7.40
2018-05-23T02:33:59.714Z,6.40
2018-05-23T02:35:04.048Z,6.62
2018-05-23T02:36:08.567Z,6.32
2018-05-23T02:37:12.656Z,7.07
2018-05-23T02:38:16.692Z,7.00
2018-05-23T02:39:20.895Z,6.60
2018-05-23T02:40:26.879Z,7.18
2018-05-23T02:41:31.536Z,6.60
2018-05-23T02:42:35.808Z,6.05
2018-05-23T02:43:40.837Z,7.60
2018-05-23T02:44:45.032Z,6.80
2018-05-23T02:45:49.243Z,6.50
2018-05-23T02:46:54.024Z,6.85
2018-05-23T02:47:59.243Z,6.05
2018-05-23T02:49:03.449Z,6.95
2018-05-23T02:50:07.651Z,5.72
2018-05-23T02:51:11.873Z,6.37
2018-05-23T02:54:14.020Z,6.32
2018-05-23T02:55:18.244Z,6.72
2018-05-23T02:56:22.486Z,6.97
2018-05-23T02:57:26.958Z,6.68
2018-05-23T02:58:31.944Z,6.68
2018-05-23T02:59:35.982Z,6.70
2018-05-23T03:00:41.044Z,5.65
2018-05-23T03:01:45.144Z,7.30
2018-05-23T03:02:49.195Z,6.12
2018-05-23T03:03:53.422Z,6.97
2018-05-23T03:04:58.228Z,7.07
2018-05-23T03:06:02.629Z,7.30
2018-05-23T03:07:06.863Z,6.35
2018-05-23T03:08:12.053Z,6.10
2018-05-23T03:09:16.218Z,6.97
2018-05-23T03:10:20.484Z,5.97
2018-05-23T03:11:24.694Z,6.60
2018-05-23T03:12:29.680Z,6.80
2018-05-23T03:13:33.949Z,6.10
2018-05-23T03:14:38.236Z,7.25
2018-05-23T03:15:43.365Z,6.35
2018-05-23T03:16:48.340Z,6.50
2018-05-23T03:17:52.575Z,5.70
2018-05-23T03:18:56.815Z,6.05
2018-05-23T03:20:02.423Z,6.43
2018-05-23T03:21:06.644Z,6.28
2018-05-23T03:22:11.690Z,6.15
2018-05-23T03:23:15.908Z,6.20
2018-05-23T03:24:20.162Z,6.22
2018-05-23T03:25:24.361Z,5.95
2018-05-23T03:26:29.050Z,6.30
2018-05-23T03:27:33.263Z,6.78
2018-05-23T03:28:37.467Z,6.40
2018-05-23T03:29:41.682Z,6.40
2018-05-23T03:30:45.891Z,6.78
2018-05-23T03:31:50.110Z,6.32
2018-05-23T03:32:55.494Z,7.05
2018-05-23T03:33:59.764Z,6.37
2018-05-23T03:35:04.745Z,5.80
2018-05-23T03:36:08.954Z,6.10
2018-05-23T03:37:13.171Z,5.70
2018-05-23T03:38:17.371Z,6.12
2018-05-23T03:39:21.625Z,5.85
2018-05-23T03:40:25.987Z,6.95
2018-05-23T03:41:30.896Z,5.47
2018-05-23T03:42:35.094Z,5.85
2018-05-23T03:43:39.190Z,5.97
2018-05-23T03:44:43.974Z,6.32
2018-05-23T03:45:48.436Z,5.40
2018-05-23T03:46:52.737Z,5.55
2018-05-23T03:47:56.961Z,5.07
2018-05-23T03:49:01.195Z,6.00
2018-05-23T03:50:06.183Z,5.62
2018-05-23T03:51:10.735Z,5.90
2018-05-23T03:52:15.742Z,4.95
2018-05-23T03:53:19.971Z,5.95
2018-05-23T03:54:24.183Z,5.40
2018-05-23T03:55:28.302Z,4.97
2018-05-23T03:56:32.444Z,6.35
2018-05-23T03:57:36.466Z,6.10
2018-05-23T03:58:41.353Z,5.70
2018-05-23T03:59:54.259Z,4.82
2018-05-23T04:03:16.584Z,6.00
2018-05-23T04:06:31.486Z,5.65
2018-05-23T04:07:38.124Z,6.90
2018-05-23T04:08:42.633Z,5.45
2018-05-23T04:09:46.883Z,5.95
2018-05-23T04:10:51.070Z,5.87
2018-05-23T04:11:55.282Z,5.75
2018-05-23T04:12:59.487Z,5.60
2018-05-23T04:14:03.526Z,5.65
2018-05-23T04:15:07.828Z,5.75
2018-05-23T04:16:11.879Z,5.45
2018-05-23T04:17:15.919Z,5.75
2018-05-23T04:18:20.910Z,5.70
2018-05-23T04:19:24.977Z,5.78
2018-05-23T04:20:29.029Z,6.40
2018-05-23T04:21:33.561Z,6.00
2018-05-23T04:22:37.807Z,6.03
2018-05-23T04:23:42.043Z,5.40
2018-05-23T04:24:46.394Z,5.97
2018-05-23T04:25:50.530Z,5.55
2018-05-23T04:26:55.024Z,5.50
2018-05-23T04:28:00.028Z,5.97
2018-05-23T04:29:04.300Z,5.40
2018-05-23T04:30:08.468Z,6.40
2018-05-23T04:31:12.591Z,5.35
2018-05-23T04:32:16.626Z,5.97
2018-05-23T04:33:21.727Z,5.55
2018-05-23T04:34:25.778Z,6.07
2018-05-23T04:35:29.907Z,5.68
2018-05-23T04:36:33.971Z,5.70
2018-05-23T04:37:38.022Z,5.90
2018-05-23T04:38:42.063Z,5.57
2018-05-23T04:39:46.924Z,5.85
2018-05-23T04:40:51.038Z,6.28
2018-05-23T04:41:55.091Z,6.28
2018-05-23T04:42:59.866Z,5.95
2018-05-23T04:44:04.007Z,6.10
2018-05-23T04:45:08.367Z,5.87
2018-05-23T04:46:12.482Z,5.22
2018-05-23T04:47:16.507Z,5.68
2018-05-23T04:48:21.316Z,6.25
2018-05-23T04:49:25.418Z,5.53
2018-05-23T04:50:29.503Z,5.78
2018-05-23T04:51:33.949Z,5.65
2018-05-23T04:52:38.778Z,6.05
2018-05-23T04:53:42.845Z,5.47
2018-05-23T04:54:46.924Z,5.90
2018-05-23T04:55:51.045Z,5.53
2018-05-23T04:56:55.082Z,5.55
2018-05-23T04:58:00.047Z,5.07
2018-05-23T04:59:04.476Z,6.62
2018-05-23T05:00:08.707Z,6.00
2018-05-23T05:01:13.667Z,5.22
2018-05-23T05:02:17.875Z,6.97
2018-05-23T05:03:22.408Z,6.37
2018-05-23T05:04:26.609Z,5.82
2018-05-23T05:05:30.799Z,5.45
2018-05-23T05:06:34.984Z,4.78
2018-05-23T05:07:39.014Z,5.07
2018-05-23T05:08:43.034Z,6.07
2018-05-23T05:09:47.428Z,6.05
2018-05-23T05:10:51.618Z,6.00
2018-05-23T05:11:55.692Z,5.62
2018-05-23T05:12:59.898Z,5.20
2018-05-23T05:14:04.352Z,6.03
2018-05-23T05:15:08.523Z,6.57
2018-05-23T05:16:13.115Z,6.22
2018-05-23T05:17:18.106Z,5.47
2018-05-23T05:18:22.310Z,5.45
2018-05-23T05:19:26.555Z,6.05
2018-05-23T05:20:31.536Z,5.30
2018-05-23T05:21:35.760Z,5.60
2018-05-23T05:22:39.960Z,5.37
2018-05-23T05:23:44.194Z,6.60
2018-05-23T05:24:49.338Z,5.93
2018-05-23T05:25:53.655Z,5.62
2018-05-23T05:26:57.731Z,5.57
2018-05-23T05:28:02.680Z,6.43
2018-05-23T05:29:06.713Z,5.47
2018-05-23T05:30:10.784Z,5.45
2018-05-23T05:31:14.820Z,6.20
2018-05-23T05:32:18.900Z,5.40
2018-05-23T05:33:23.237Z,5.78
2018-05-23T05:34:27.305Z,6.00
2018-05-23T05:35:31.339Z,5.45
2018-05-23T05:36:35.560Z,5.75
2018-05-23T05:37:39.850Z,5.90
2018-05-23T05:38:44.105Z,5.93
2018-05-23T05:39:49.466Z,5.80
2018-05-23T05:40:53.774Z,5.35
2018-05-23T05:41:58.409Z,5.37
2018-05-23T05:43:02.625Z,5.20
2018-05-23T05:44:07.674Z,4.85
2018-05-23T05:45:11.882Z,5.68
2018-05-23T05:46:16.425Z,4.87
2018-05-23T05:47:20.667Z,5.93
2018-05-23T05:48:24.939Z,5.30
2018-05-23T05:49:29.179Z,6.10
2018-05-23T05:50:33.394Z,6.22
2018-05-23T05:51:37.602Z,5.70
2018-05-23T05:52:42.580Z,5.40
2018-05-23T05:53:46.831Z,5.72
2018-05-23T05:54:51.803Z,5.47
2018-05-23T05:55:56.018Z,5.32
2018-05-23T05:57:00.316Z,5.43
2018-05-23T05:58:04.529Z,6.22
2018-05-23T05:59:08.744Z,5.50
2018-05-23T06:00:12.979Z,6.20
2018-05-23T06:01:17.966Z,6.22
2018-05-23T06:02:22.200Z,5.40
2018-05-23T06:03:26.362Z,5.70
2018-05-23T06:04:30.414Z,5.55
2018-05-23T06:05:35.602Z,6.20
2018-05-23T06:06:39.605Z,4.53
2018-05-23T06:07:43.664Z,5.70
2018-05-23T06:08:47.840Z,6.05
2018-05-23T06:09:51.941Z,5.87
2018-05-23T06:10:55.970Z,5.93
2018-05-23T06:12:00.327Z,5.65
2018-05-23T06:13:04.370Z,5.65
2018-05-23T06:14:09.196Z,5.40
2018-05-23T06:15:14.011Z,6.00
2018-05-23T06:16:18.853Z,6.10
2018-05-23T06:17:22.915Z,5.68
2018-05-23T06:18:27.235Z,5.65
2018-05-23T06:19:31.461Z,6.15
2018-05-23T06:20:35.499Z,5.97
2018-05-23T06:21:39.546Z,6.87
2018-05-23T06:22:44.337Z,5.80
2018-05-23T06:23:48.547Z,5.50
2018-05-23T06:24:52.738Z,5.22
2018-05-23T06:25:56.946Z,5.47
2018-05-23T06:27:01.217Z,5.65
2018-05-23T06:28:05.450Z,6.12
2018-05-23T06:29:09.728Z,6.65
2018-05-23T06:30:14.203Z,5.47
2018-05-23T06:31:19.281Z,6.07
2018-05-23T06:32:23.386Z,6.37
2018-05-23T06:33:27.445Z,5.78
2018-05-23T06:34:31.549Z,6.35
2018-05-23T06:35:35.804Z,6.80
2018-05-23T06:36:40.279Z,5.57
2018-05-23T06:37:44.618Z,6.25
2018-05-23T06:38:48.879Z,5.60
2018-05-23T06:39:53.091Z,6.20
2018-05-23T06:40:57.301Z,6.72
2018-05-23T06:42:01.341Z,6.00
2018-05-23T06:43:05.446Z,5.93
2018-05-23T06:44:09.525Z,6.25
2018-05-23T06:45:13.554Z,6.95
2018-05-23T06:46:17.596Z,6.53
2018-05-23T06:47:21.684Z,5.93
2018-05-23T06:48:26.554Z,6.12
2018-05-23T06:49:31.667Z,6.00
2018-05-23T06:50:35.869Z,7.12
2018-05-23T06:51:40.849Z,6.70
2018-05-23T06:52:45.050Z,6.03
2018-05-23T06:53:50.044Z,6.18
2018-05-23T06:54:54.522Z,6.40
2018-05-23T06:55:58.786Z,6.72
2018-05-23T06:57:03.040Z,6.93
2018-05-23T06:58:07.300Z,6.15
2018-05-23T06:59:11.602Z,6.70
2018-05-23T07:00:15.651Z,6.28
2018-05-23T07:01:19.710Z,6.22
2018-05-23T07:02:23.759Z,6.07
2018-05-23T07:03:27.813Z,6.57
2018-05-23T07:04:31.858Z,5.80
2018-05-23T07:05:35.968Z,7.20
2018-05-23T07:06:40.154Z,6.70
2018-05-23T07:07:44.220Z,6.50
2018-05-23T07:08:48.274Z,6.75
2018-05-23T07:09:52.336Z,6.78
2018-05-23T07:10:57.490Z,7.30
2018-05-23T07:12:02.350Z,6.70
2018-05-23T07:13:06.787Z,6.80
2018-05-23T07:14:10.835Z,6.85
2018-05-23T07:15:14.899Z,6.82
2018-05-23T07:16:19.707Z,7.55
2018-05-23T07:17:23.915Z,7.05
2018-05-23T07:18:28.505Z,7.10
2018-05-23T07:19:32.730Z,7.25
2018-05-23T07:20:36.996Z,6.75
2018-05-23T07:21:41.226Z,7.90
2018-05-23T07:22:45.415Z,6.37
2018-05-23T07:23:50.411Z,7.28
2018-05-23T07:24:54.630Z,6.90
2018-05-23T07:25:58.905Z,7.35
2018-05-23T07:27:03.510Z,7.05
2018-05-23T07:28:08.573Z,7.25
2018-05-23T07:29:12.674Z,6.60
2018-05-23T07:30:17.126Z,8.10
2018-05-23T07:31:22.023Z,7.53
2018-05-23T07:32:26.102Z,7.80
2018-05-23T07:33:30.155Z,8.25
2018-05-23T07:34:34.294Z,7.10
2018-05-23T07:35:38.401Z,8.20
2018-05-23T07:36:43.275Z,8.48
2018-05-23T07:37:47.489Z,8.25
2018-05-23T07:38:52.411Z,7.95
2018-05-23T07:39:56.452Z,8.70
2018-05-23T07:41:00.714Z,8.43
2018-05-23T07:42:04.770Z,8.63
2018-05-23T07:43:08.806Z,8.02
2018-05-23T07:44:12.879Z,8.15
2018-05-23T07:45:17.152Z,9.50
2018-05-23T07:46:21.973Z,8.90
2018-05-23T07:47:26.748Z,9.48
2018-05-23T07:48:31.253Z,10.23
2018-05-23T07:49:36.071Z,9.05
2018-05-23T07:50:40.347Z,9.30
2018-05-23T07:51:44.558Z,9.95
2018-05-23T07:52:48.880Z,9.50
2018-05-23T07:53:53.374Z,9.10
2018-05-23T07:54:57.726Z,8.45
2018-05-23T07:56:02.139Z,9.20
2018-05-23T07:57:06.343Z,8.82
2018-05-23T07:58:10.650Z,9.38
2018-05-23T07:59:14.687Z,9.05
2018-05-23T08:00:18.852Z,9.55
2018-05-23T08:01:22.903Z,9.60
2018-05-23T08:02:27.034Z,11.15
2018-05-23T08:03:31.074Z,9.50
2018-05-23T08:04:35.907Z,9.75
2018-05-23T08:05:41.171Z,9.57
2018-05-23T08:06:45.471Z,9.00
2018-05-23T08:07:50.452Z,10.13
2018-05-23T08:08:55.457Z,8.93
2018-05-23T08:10:05.639Z,9.35
2018-05-23T08:11:11.281Z,10.20
2018-05-23T08:12:16.126Z,9.25
2018-05-23T08:13:21.560Z,8.90
2018-05-23T08:14:33.735Z,9.20
2018-05-23T08:15:41.252Z,10.10
2018-05-23T08:16:45.537Z,9.25
2018-05-23T08:17:49.767Z,9.13
2018-05-23T08:18:54.218Z,8.90
2018-05-23T08:20:00.434Z,10.18
2018-05-23T08:21:05.205Z,9.68
2018-05-23T08:22:10.621Z,10.88
2018-05-23T08:23:15.985Z,9.90
2018-05-23T08:24:20.453Z,8.70
2018-05-23T08:25:25.077Z,9.80
2018-05-23T08:26:29.963Z,10.48
2018-05-23T08:27:34.151Z,10.05
2018-05-23T08:28:38.792Z,9.57
2018-05-23T08:29:43.192Z,8.68
2018-05-23T08:30:47.256Z,9.07
2018-05-23T08:31:51.341Z,9.50
2018-05-23T08:32:55.420Z,9.45
2018-05-23T08:34:00.122Z,9.30
2018-05-23T08:35:04.249Z,10.10
2018-05-23T08:36:09.371Z,9.43
2018-05-23T08:37:14.456Z,9.40
2018-05-23T08:38:18.668Z,9.50
2018-05-23T08:39:22.906Z,9.65
2018-05-23T08:40:27.911Z,9.00
2018-05-23T08:41:32.636Z,8.80
2018-05-23T08:42:37.744Z,8.00
2018-05-23T08:43:42.011Z,9.07
2018-05-23T08:44:46.227Z,9.80
2018-05-23T08:45:50.471Z,9.18
2018-05-23T08:46:54.714Z,8.15
2018-05-23T08:47:58.841Z,8.52
2018-05-23T08:49:02.932Z,9.38
2018-05-23T08:50:07.063Z,8.55
2018-05-23T08:51:12.242Z,8.05
2018-05-23T08:52:17.231Z,8.65
2018-05-23T08:53:22.289Z,9.48
2018-05-23T08:54:26.883Z,8.32
2018-05-23T08:55:30.987Z,8.82
2018-05-23T08:56:35.091Z,8.55
2018-05-23T08:57:40.446Z,9.02
2018-05-23T08:58:45.426Z,8.55
2018-05-23T08:59:50.529Z,8.10
2018-05-23T09:00:58.180Z,8.38
2018-05-23T09:02:02.817Z,8.48
2018-05-23T09:03:07.388Z,8.60
2018-05-23T09:04:12.636Z,9.25
2018-05-23T09:05:17.300Z,8.48
2018-05-23T09:06:21.571Z,8.25
2018-05-23T09:07:25.833Z,8.05
2018-05-23T09:08:30.108Z,7.40
2018-05-23T09:09:34.712Z,8.35
2018-05-23T09:10:39.018Z,7.97
2018-05-23T09:11:43.223Z,7.47
2018-05-23T09:12:47.482Z,8.88
2018-05-23T09:13:52.483Z,6.95
2018-05-23T09:14:56.807Z,7.68
2018-05-23T09:16:01.015Z,7.57
2018-05-23T09:17:06.013Z,8.43
2018-05-23T09:18:10.288Z,8.00
2018-05-23T09:19:14.571Z,7.65
2018-05-23T09:20:18.768Z,8.43
2018-05-23T09:21:23.755Z,7.78
2018-05-23T09:22:28.018Z,7.80
2018-05-23T09:23:32.115Z,7.65
2018-05-23T09:24:36.167Z,7.45
2018-05-23T09:25:40.191Z,7.07
2018-05-23T09:26:44.336Z,7.28
2018-05-23T09:27:48.403Z,7.60
2018-05-23T09:28:53.246Z,7.15
2018-05-23T09:29:57.308Z,7.03
2018-05-23T09:31:02.116Z,7.45
2018-05-23T09:32:06.260Z,7.72
2018-05-23T09:33:10.379Z,7.35
2018-05-23T09:34:14.439Z,7.10
2018-05-23T09:35:18.535Z,7.10
2018-05-23T09:36:22.583Z,7.22
2018-05-23T09:37:26.648Z,7.45
2018-05-23T09:38:30.694Z,6.87
2018-05-23T09:39:34.761Z,7.85
2018-05-23T09:40:38.816Z,6.28
2018-05-23T09:41:42.922Z,7.05
2018-05-23T09:42:46.951Z,6.55
2018-05-23T09:43:51.140Z,5.95
2018-05-23T09:44:56.431Z,7.97
2018-05-23T09:46:00.487Z,7.10
2018-05-23T09:47:04.856Z,6.75
2018-05-23T09:48:08.919Z,7.43
2018-05-23T09:49:13.731Z,6.90
2018-05-23T09:50:17.827Z,7.32
2018-05-23T09:51:22.713Z,7.70
2018-05-23T09:52:26.818Z,6.82
2018-05-23T09:53:30.840Z,7.18
2018-05-23T09:54:35.126Z,6.15
2018-05-23T09:55:39.360Z,6.32
2018-05-23T09:56:44.918Z,6.03
2018-05-23T09:57:49.372Z,6.62
2018-05-23T09:58:53.612Z,5.85
2018-05-23T09:59:57.803Z,7.28
2018-05-23T10:01:01.959Z,7.30
2018-05-23T10:02:05.998Z,6.22
2018-05-23T10:03:30.785Z,7.00
2018-05-23T10:04:34.898Z,7.20
2018-05-23T10:05:39.076Z,6.68
2018-05-23T10:06:43.126Z,6.93
2018-05-23T10:07:48.005Z,6.55
2018-05-23T10:08:52.375Z,7.12
2018-05-23T10:09:56.762Z,6.30
2018-05-23T10:11:01.615Z,6.25
2018-05-23T10:12:05.875Z,6.57
2018-05-23T10:13:10.275Z,7.45
2018-05-23T10:14:14.512Z,6.65
2018-05-23T10:15:19.584Z,6.97
2018-05-23T10:16:23.943Z,6.57
2018-05-23T10:17:28.816Z,6.25
2018-05-23T10:18:32.922Z,5.87
2018-05-23T10:19:37.038Z,6.95
2018-05-23T10:20:41.314Z,6.45
2018-05-23T10:21:45.510Z,6.65
2018-05-23T10:22:49.711Z,6.60
2018-05-23T10:23:53.743Z,7.00
2018-05-23T10:24:57.893Z,6.35
2018-05-23T10:26:02.851Z,6.00
2018-05-23T10:27:07.084Z,6.43
2018-05-23T10:28:11.352Z,6.30
2018-05-23T10:29:16.298Z,6.47
2018-05-23T10:30:20.507Z,5.78
2018-05-23T10:31:24.867Z,6.35
2018-05-23T10:32:29.401Z,6.32
2018-05-23T10:33:33.654Z,6.75
2018-05-23T10:34:37.890Z,7.12
2018-05-23T10:35:42.901Z,6.40
2018-05-23T10:36:47.746Z,5.78
2018-05-23T10:37:51.795Z,6.55
2018-05-23T10:38:56.717Z,6.53
2018-05-23T10:40:00.816Z,6.30
2018-05-23T10:41:04.909Z,5.78
2018-05-23T10:42:09.035Z,6.55
2018-05-23T10:43:13.084Z,5.90
2018-05-23T10:44:17.267Z,6.50
2018-05-23T10:45:22.124Z,6.72
2018-05-23T10:46:26.690Z,6.78
2018-05-23T10:47:31.731Z,6.55
2018-05-23T10:48:36.223Z,7.12
2018-05-23T10:49:41.116Z,6.62
2018-05-23T10:50:45.375Z,4.93
2018-05-23T10:51:50.310Z,6.53
2018-05-23T10:52:54.405Z,5.50
2018-05-23T10:53:58.530Z,6.37
2018-05-23T10:55:02.689Z,5.32
2018-05-23T10:56:07.557Z,6.30
2018-05-23T10:57:11.700Z,6.25
2018-05-23T10:58:16.512Z,6.30
2018-05-23T10:59:20.580Z,6.57
2018-05-23T11:02:31.095Z,5.78
2018-05-23T11:03:35.932Z,6.15
2018-05-23T11:04:40.047Z,6.05
2018-05-23T11:05:45.226Z,6.25
2018-05-23T11:06:49.325Z,6.20
2018-05-23T11:11:03.825Z,6.70
2018-05-23T11:12:33.661Z,6.60
2018-05-23T11:13:37.829Z,6.30
2018-05-23T11:14:42.699Z,7.10
2018-05-23T11:15:46.778Z,6.35
2018-05-23T11:16:51.146Z,7.60
2018-05-23T11:17:56.144Z,6.35
2018-05-23T11:19:00.219Z,6.87
2018-05-23T11:20:04.447Z,6.60
2018-05-23T11:21:08.588Z,6.70
2018-05-23T11:22:13.436Z,7.03
2018-05-23T11:23:17.878Z,6.90
2018-05-23T11:24:22.073Z,5.95
2018-05-23T11:25:26.177Z,6.47
2018-05-23T11:26:30.259Z,6.90
2018-05-23T11:27:34.469Z,6.62
2018-05-23T11:28:38.553Z,6.90
2018-05-23T11:29:42.705Z,5.75
2018-05-23T11:30:46.796Z,7.05
2018-05-23T11:31:50.999Z,6.82
2018-05-23T11:32:55.098Z,6.37
2018-05-23T11:33:59.234Z,6.95
2018-05-23T11:35:03.622Z,6.82
2018-05-23T11:36:07.764Z,6.75
2018-05-23T11:37:12.835Z,6.82
2018-05-23T11:38:17.123Z,6.35
2018-05-23T11:39:21.319Z,6.87
2018-05-23T11:40:25.530Z,7.10
2018-05-23T11:41:29.871Z,6.78
2018-05-23T11:42:33.898Z,6.10
2018-05-23T11:43:38.831Z,6.50
2018-05-23T11:44:43.683Z,6.75
2018-05-23T11:45:47.705Z,7.20
2018-05-23T11:46:52.533Z,5.70
2018-05-23T11:47:56.602Z,6.40
2018-05-23T11:49:00.878Z,6.30
2018-05-23T11:50:05.800Z,6.80
2018-05-23T11:51:10.655Z,6.05
2018-05-23T11:52:14.757Z,6.95
2018-05-23T11:53:19.174Z,6.30
2018-05-23T11:54:23.269Z,6.47
2018-05-23T11:55:28.167Z,6.25
2018-05-23T11:56:33.005Z,6.70
2018-05-23T11:57:37.203Z,6.43
2018-05-23T11:58:41.420Z,6.25
2018-05-23T11:59:45.901Z,6.55
2018-05-23T12:00:50.703Z,6.45
2018-05-23T12:01:54.758Z,7.22
2018-05-23T12:02:58.946Z,6.45
2018-05-23T12:04:02.990Z,6.20
2018-05-23T12:05:07.170Z,6.75
2018-05-23T12:06:11.231Z,7.18
2018-05-23T12:07:16.101Z,6.60
2018-05-23T12:08:20.218Z,6.32
2018-05-23T12:09:24.351Z,5.70
2018-05-23T12:10:29.194Z,6.62
2018-05-23T12:11:33.270Z,5.93
2018-05-23T12:12:37.301Z,5.03
2018-05-23T12:13:41.380Z,6.70
2018-05-23T12:14:46.360Z,6.95
2018-05-23T12:15:50.806Z,6.57
2018-05-23T12:16:55.007Z,5.85
2018-05-23T12:17:59.209Z,6.18
2018-05-23T12:19:04.468Z,6.37
2018-05-23T12:20:09.744Z,5.95
2018-05-23T12:21:13.945Z,7.00
2018-05-23T12:22:18.239Z,5.87
2018-05-23T12:23:22.582Z,5.53
2018-05-23T12:24:26.832Z,6.10
2018-05-23T12:25:31.043Z,6.55
2018-05-23T12:26:35.388Z,5.93
2018-05-23T12:27:39.679Z,5.93
2018-05-23T12:28:43.888Z,5.68
2018-05-23T12:29:48.069Z,5.60
2018-05-23T12:30:52.325Z,6.05
2018-05-23T12:31:56.623Z,6.15
2018-05-23T12:33:01.007Z,6.70
2018-05-23T12:34:05.079Z,6.00
2018-05-23T12:35:09.503Z,5.85
2018-05-23T12:36:13.911Z,5.50
2018-05-23T12:37:18.351Z,5.87
2018-05-23T12:38:22.444Z,5.60
2018-05-23T12:39:26.505Z,5.95
2018-05-23T12:40:30.575Z,6.20
2018-05-23T12:41:35.218Z,6.15
2018-05-23T12:42:40.290Z,6.25
2018-05-23T12:43:44.573Z,6.22
2018-05-23T12:44:49.128Z,5.22
2018-05-23T12:45:53.960Z,6.35
2018-05-23T12:46:58.135Z,5.62
2018-05-23T12:48:02.289Z,6.03
2018-05-23T12:49:07.852Z,6.00
2018-05-23T12:50:12.279Z,6.35
2018-05-23T12:51:17.323Z,6.37
2018-05-23T12:52:21.526Z,5.70
2018-05-23T12:53:26.411Z,5.75
2018-05-23T12:54:30.755Z,5.35
2018-05-23T12:55:35.068Z,5.62
2018-05-23T12:56:39.285Z,5.30
2018-05-23T12:57:44.311Z,6.07
2018-05-23T12:58:48.627Z,5.60
2018-05-23T12:59:53.890Z,5.65
2018-05-23T13:00:58.275Z,6.05
2018-05-23T13:02:03.365Z,5.45
2018-05-23T13:03:07.579Z,6.22
2018-05-23T13:04:11.813Z,5.55
2018-05-23T13:05:16.819Z,5.55
2018-05-23T13:06:21.384Z,6.37
2018-05-23T13:07:25.425Z,5.43
2018-05-23T13:08:29.514Z,5.80
2018-05-23T13:09:33.583Z,5.10
2018-05-23T13:10:37.716Z,6.40
2018-05-23T13:11:41.775Z,5.30
2018-05-23T13:12:45.853Z,5.68
2018-05-23T13:13:49.910Z,5.80
2018-05-23T13:14:54.023Z,5.45
2018-05-23T13:15:58.840Z,5.87
2018-05-23T13:17:03.190Z,5.47
2018-05-23T13:18:08.258Z,5.10
2018-05-23T13:19:12.598Z,5.35
2018-05-23T13:20:16.848Z,5.97
2018-05-23T13:21:21.075Z,6.03
2018-05-23T13:22:25.371Z,5.78
2018-05-23T13:23:29.604Z,5.30
2018-05-23T13:24:34.108Z,6.28
2018-05-23T13:25:38.351Z,5.53
2018-05-23T13:26:43.190Z,6.60
2018-05-23T13:27:47.240Z,6.03
2018-05-23T13:28:51.284Z,5.95
2018-05-23T13:29:56.111Z,5.70
2018-05-23T13:31:00.160Z,5.75
2018-05-23T13:32:04.263Z,5.57
2018-05-23T13:33:08.332Z,6.28
2018-05-23T13:34:12.412Z,5.82
2018-05-23T13:35:17.269Z,4.57
2018-05-23T13:36:21.367Z,5.85
2018-05-23T13:37:25.465Z,6.47
2018-05-23T13:38:30.655Z,5.95
2018-05-23T13:39:35.683Z,5.50
2018-05-23T13:40:40.714Z,5.60
2018-05-23T13:41:45.810Z,5.60
2018-05-23T13:42:50.025Z,6.07
2018-05-23T13:43:54.525Z,5.32
2018-05-23T13:44:58.742Z,5.15
2018-05-23T13:46:02.996Z,4.80
2018-05-23T13:47:07.270Z,5.87
2018-05-23T13:48:12.429Z,5.55
2018-05-23T13:49:16.673Z,5.93
2018-05-23T13:50:20.891Z,5.87
2018-05-23T13:51:25.207Z,5.75
2018-05-23T13:52:30.177Z,5.53
2018-05-23T13:53:34.354Z,6.22
2018-05-23T13:54:38.459Z,5.00
2018-05-23T13:55:42.505Z,6.03
2018-05-23T13:56:46.579Z,6.62
2018-05-23T13:57:50.594Z,5.12
2018-05-23T13:58:54.634Z,5.72
2018-05-23T13:59:58.728Z,6.20
2018-05-23T14:01:03.039Z,5.95
2018-05-23T14:02:07.139Z,6.30
2018-05-23T14:03:11.380Z,5.43
2018-05-23T14:04:15.471Z,4.97
2018-05-23T14:05:20.294Z,6.18
2018-05-23T14:06:25.091Z,5.40
2018-05-23T14:07:29.181Z,5.47
2018-05-23T14:08:33.237Z,5.72
2018-05-23T14:09:37.407Z,5.55
2018-05-23T14:10:41.412Z,5.10
2018-05-23T14:11:46.322Z,5.85
2018-05-23T14:12:50.536Z,5.40
2018-05-23T14:13:55.371Z,4.95
2018-05-23T14:14:59.400Z,5.50
2018-05-23T14:16:03.458Z,5.30
2018-05-23T14:17:08.257Z,5.57
2018-05-23T14:18:12.323Z,5.82
2018-05-23T14:19:16.466Z,5.37
2018-05-23T14:20:20.513Z,5.70
2018-05-23T14:21:24.573Z,6.10
2018-05-23T14:22:28.621Z,5.87
2018-05-23T14:23:32.726Z,5.72
2018-05-23T14:24:36.861Z,5.37
2018-05-23T14:25:41.805Z,5.68
2018-05-23T14:26:45.878Z,5.20
2018-05-23T14:27:50.094Z,5.15